Torquay, Canada
Current Conditions -  °F | °C
As of 11:15 AM on Sunday 23 Nov 2014 (Local Time) from KD50 Reporting Station
Light Snow Light Snow  
Wind Chill: -4°   Ceiling: 4100
Heat Index: 16°   Visibility: 9mi
Dew Point: 10°   Wind: 28mph
Humidity: 79%   Direction: 320°NW
Pressure: 29.66"   Gusts: 35mph
Location:  49.14°N, 103.5°W
Report Text: KD50 231715Z AUTO 32024G30KT 9SM -SN FEW014 SCT018 OVC041 M09/M12 A2966 RMK AO2
Loading
Personal Weather Stations






























Interactive Weather Map New forecast layout! Learn more

10-Day Weather Forecast

Advertisements
Track Severe Weather on mobile